Time;durP1;ratioP1;P1;durP2;ratioP2;P2;SDS_P1;SDS_P2;PMS_P1;PMS_P2;Temp;Humidity;BMP_temperature;BMP_pressure;BME280_temperature;BME280_humidity;BME280_pressure;Samples;Min_cycle;Max_cycle;Signal;HPM_P1;HPM_P2
2023/01/19 00:04:27;;;;;;;13.10;6.70;;;;;;;5.34;100.00;97754.00;265536;1279;22575;-82
2023/01/19 00:10:32;;;;;;;12.70;6.50;;;;;;;5.28;100.00;97761.76;262133;1279;5384929;-82
2023/01/19 00:16:45;;;;;;;14.80;6.80;;;;;;;5.25;100.00;97758.77;265909;1279;22539;-82
2023/01/19 00:22:49;;;;;;;13.30;6.80;;;;;;;5.24;100.00;97766.04;267094;1280;22578;-82
2023/01/19 00:29:13;;;;;;;14.50;6.60;;;;;;;5.27;100.00;97769.68;267039;1279;22548;-82
2023/01/19 00:35:18;;;;;;;15.10;6.80;;;;;;;5.18;100.00;97767.58;265915;1279;23889;-82
2023/01/19 00:42:38;;;;;;;;;;;;;;;5.21;100.00;97770.40;266856;1279;22559;-82
2023/01/19 00:47:46;;;;;;;11.10;6.20;;;;;;;5.32;100.00;97774.34;267055;1277;22543;-83
2023/01/19 00:54:03;;;;;;;14.10;7.00;;;;;;;5.26;100.00;97770.13;266858;1280;24055;-83
2023/01/19 01:00:15;;;;;;;12.20;6.80;;;;;;;5.25;100.00;97773.52;267160;1279;25436;-83
2023/01/19 01:06:19;;;;;;;11.70;6.30;;;;;;;5.27;100.00;97768.78;266855;1279;23462;-81
2023/01/19 01:12:31;;;;;;;14.50;7.60;;;;;;;5.28;100.00;97767.45;266796;1279;25665;-81
2023/01/19 01:18:43;;;;;;;12.20;6.20;;;;;;;5.35;100.00;97759.53;266931;1279;25909;-81
2023/01/19 01:24:51;;;;;;;13.70;7.20;;;;;;;5.43;100.00;97752.84;266697;1279;22803;-84
2023/01/19 01:30:58;;;;;;;13.30;6.80;;;;;;;5.44;100.00;97748.19;266751;1279;25600;-82
2023/01/19 01:37:14;;;;;;;13.60;7.50;;;;;;;5.37;100.00;97745.19;266984;1264;22588;-82
2023/01/19 01:43:52;;;;;;;12.00;6.60;;;;;;;5.44;100.00;97735.77;267512;1279;22543;-83
2023/01/19 01:50:29;;;;;;;20.80;10.00;;;;;;;5.51;100.00;97734.71;267806;1273;24348;-82
2023/01/19 01:56:49;;;;;;;14.50;7.00;;;;;;;5.44;100.00;97727.88;267354;1279;24237;-83
2023/01/19 02:02:54;;;;;;;14.80;8.70;;;;;;;5.59;100.00;97718.05;266960;1279;22624;-81
2023/01/19 02:15:30;;;;;;;15.50;8.20;;;;;;;5.66;100.00;97729.13;266406;1279;22620;-81
2023/01/19 02:21:57;;;;;;;19.20;10.30;;;;;;;5.68;100.00;97724.33;266488;1279;22773;-81
2023/01/19 02:28:10;;;;;;;14.80;7.50;;;;;;;5.66;100.00;97721.30;266403;1279;24400;-81
2023/01/19 02:34:27;;;;;;;17.60;9.30;;;;;;;5.61;100.00;97715.42;266637;1277;25268;-82
2023/01/19 02:40:37;;;;;;;14.20;7.80;;;;;;;5.64;100.00;97709.35;266651;1280;22595;-82
2023/01/19 02:46:49;;;;;;;30.30;14.40;;;;;;;5.65;100.00;97711.08;266958;1267;22586;-82
2023/01/19 02:53:05;;;;;;;18.50;9.40;;;;;;;5.70;100.00;97718.27;266539;1280;22687;-82
2023/01/19 02:59:34;;;;;;;20.70;10.00;;;;;;;5.69;100.00;97731.39;266746;1279;22545;-82
2023/01/19 03:06:03;;;;;;;27.60;13.60;;;;;;;5.69;100.00;97738.48;266766;1279;24095;-85
2023/01/19 03:12:28;;;;;;;19.10;10.20;;;;;;;5.81;100.00;97734.96;266699;1279;23238;-84
2023/01/19 03:18:33;;;;;;;20.90;11.90;;;;;;;5.77;100.00;97738.55;267335;1279;25373;-83
2023/01/19 03:24:50;;;;;;;20.10;10.20;;;;;;;5.84;100.00;97743.14;266967;1279;24806;-84
2023/01/19 03:31:09;;;;;;;20.50;10.70;;;;;;;5.87;100.00;97739.90;266844;1279;23416;-82
2023/01/19 03:37:20;;;;;;;22.50;11.50;;;;;;;5.93;100.00;97741.90;266892;1279;22697;-84
2023/01/19 03:43:25;;;;;;;22.80;13.30;;;;;;;5.92;100.00;97746.09;267053;1279;22550;-82
2023/01/19 03:49:36;;;;;;;24.50;13.10;;;;;;;5.99;100.00;97757.03;267059;1280;25251;-84
2023/01/19 03:55:44;;;;;;;27.10;14.60;;;;;;;6.08;100.00;97761.19;266553;1277;22655;-84
2023/01/19 04:01:47;;;;;;;30.50;14.80;;;;;;;6.05;100.00;97758.72;266518;1279;22614;-80
2023/01/19 04:07:58;;;;;;;28.50;14.70;;;;;;;6.24;100.00;97766.11;265959;1277;22534;-81
2023/01/19 04:14:04;;;;;;;25.40;14.50;;;;;;;6.17;100.00;97773.87;265985;1264;26106;-82
2023/01/19 04:20:08;;;;;;;26.90;14.70;;;;;;;6.06;100.00;97762.21;266461;1279;24417;-82
2023/01/19 04:26:22;;;;;;;23.20;13.00;;;;;;;6.00;100.00;97733.63;267206;1279;23294;-82
2023/01/19 04:32:33;;;;;;;28.30;13.60;;;;;;;5.86;100.00;97718.80;267615;1279;24228;-81
2023/01/19 04:38:47;;;;;;;23.80;12.60;;;;;;;5.99;100.00;97721.38;266880;1281;25280;-82
2023/01/19 04:44:58;;;;;;;24.50;12.40;;;;;;;6.24;100.00;97746.42;266597;1279;22531;-82
2023/01/19 04:51:01;;;;;;;25.50;13.40;;;;;;;6.21;100.00;97758.27;267054;1279;23665;-82
2023/01/19 04:57:10;;;;;;;;;;;;;;;6.11;100.00;97778.02;266877;1279;22508;-81
2023/01/19 05:03:26;;;;;;;22.00;11.80;;;;;;;6.08;100.00;97780.84;266546;1280;22565;-82
2023/01/19 05:09:29;;;;;;;22.60;12.40;;;;;;;5.93;100.00;97790.27;267088;1280;22586;-82
2023/01/19 05:15:40;;;;;;;23.10;12.30;;;;;;;5.73;100.00;97794.81;266174;1280;22540;-83
2023/01/19 05:21:54;;;;;;;19.90;11.10;;;;;;;5.76;100.00;97795.34;266787;1277;22608;-83
2023/01/19 05:28:01;;;;;;;22.60;12.00;;;;;;;5.78;100.00;97804.88;266640;1279;22658;-82
2023/01/19 05:34:16;;;;;;;;;;;;;;;5.98;100.00;97820.38;266838;1274;22514;-83
2023/01/19 05:40:19;;;;;;;22.50;11.30;;;;;;;5.96;100.00;97817.52;267601;1269;24379;-82
2023/01/19 05:46:43;;;;;;;23.40;11.80;;;;;;;5.78;100.00;97824.49;266764;1280;22581;-85
2023/01/19 05:53:09;;;;;;;23.30;12.30;;;;;;;5.89;100.00;97820.45;266766;1280;24220;-82
2023/01/19 05:59:33;;;;;;;24.10;12.90;;;;;;;5.92;100.00;97826.50;266829;1280;22540;-82
2023/01/19 06:05:39;;;;;;;22.40;12.60;;;;;;;6.05;100.00;97830.92;266797;1280;22580;-83
2023/01/19 06:11:53;;;;;;;22.50;12.50;;;;;;;6.22;100.00;97838.84;266592;1280;25328;-83
2023/01/19 06:18:21;;;;;;;23.50;12.40;;;;;;;6.19;100.00;97837.23;266447;1280;22718;-85
2023/01/19 06:24:32;;;;;;;26.40;13.50;;;;;;;6.18;100.00;97836.71;266569;1280;22577;-83
2023/01/19 06:30:44;;;;;;;25.90;13.60;;;;;;;6.14;100.00;97851.16;266535;1280;22643;-83
2023/01/19 06:36:47;;;;;;;26.10;12.90;;;;;;;6.23;100.00;97884.35;266480;1280;23963;-82
2023/01/19 06:42:50;;;;;;;24.70;12.80;;;;;;;6.21;100.00;97904.58;266457;1280;22667;-84
2023/01/19 06:49:02;;;;;;;23.20;11.90;;;;;;;5.81;100.00;97916.16;266537;1279;26630;-85
2023/01/19 06:55:09;;;;;;;25.80;13.10;;;;;;;5.98;100.00;97919.50;266021;1275;22925;-81
2023/01/19 07:01:18;;;;;;;25.90;13.90;;;;;;;5.96;100.00;97931.66;266133;1277;22722;-83
2023/01/19 07:07:21;;;;;;;26.30;13.30;;;;;;;6.04;100.00;97934.48;266305;1258;22585;-88
2023/01/19 07:13:24;;;;;;;28.90;14.40;;;;;;;5.93;100.00;97932.66;266219;1279;22530;-84
2023/01/19 07:19:27;;;;;;;26.00;14.10;;;;;;;5.97;100.00;97949.23;266343;1279;25552;-84
2023/01/19 07:25:30;;;;;;;28.40;14.20;;;;;;;5.77;100.00;97948.09;267092;1276;22565;-83
2023/01/19 07:31:33;;;;;;;23.90;13.40;;;;;;;5.86;100.00;97936.86;267446;1273;22675;-83
2023/01/19 07:37:36;;;;;;;27.60;13.60;;;;;;;5.87;100.00;97928.13;266845;1274;22647;-81
2023/01/19 07:43:39;;;;;;;24.90;13.50;;;;;;;6.05;100.00;97923.63;267521;1277;24219;-81
2023/01/19 07:49:45;;;;;;;29.60;14.40;;;;;;;5.96;100.00;97915.22;266598;1272;25342;-82
2023/01/19 07:55:53;;;;;;;26.00;14.40;;;;;;;6.01;100.00;97901.98;267019;1274;22575;-82
2023/01/19 08:01:58;;;;;;;27.30;14.80;;;;;;;6.07;100.00;97901.44;266571;1274;23466;-82
2023/01/19 08:08:02;;;;;;;28.10;13.90;;;;;;;6.18;100.00;97917.81;267480;1274;24305;-82
2023/01/19 08:14:09;;;;;;;25.40;13.70;;;;;;;6.21;100.00;97940.73;266929;1272;23094;-82
2023/01/19 08:20:13;;;;;;;27.00;13.80;;;;;;;6.12;100.00;97962.40;266537;1271;22759;-82
2023/01/19 08:26:23;;;;;;;26.90;14.80;;;;;;;6.13;100.00;97963.95;266935;1275;22750;-82
2023/01/19 08:32:26;;;;;;;30.10;15.10;;;;;;;6.17;100.00;97964.98;266519;1274;22677;-81
2023/01/19 08:38:29;;;;;;;28.20;15.30;;;;;;;6.07;100.00;97961.54;266802;1273;26243;-81
2023/01/19 08:44:33;;;;;;;24.40;13.80;;;;;;;6.23;100.00;97948.61;266561;1271;24767;-81
2023/01/19 08:50:36;;;;;;;26.60;14.60;;;;;;;6.28;100.00;97961.02;266533;1273;23299;-80
2023/01/19 08:56:39;;;;;;;27.50;14.70;;;;;;;6.04;100.00;97960.04;266730;1274;22540;-81
2023/01/19 09:02:42;;;;;;;25.50;14.10;;;;;;;6.03;100.00;97943.64;266445;1274;22649;-81
2023/01/19 09:08:46;;;;;;;28.70;14.20;;;;;;;5.98;100.00;97930.39;266629;1274;25421;-81
2023/01/19 09:14:48;;;;;;;27.60;15.30;;;;;;;6.02;100.00;97928.61;267318;1272;22578;-81
2023/01/19 09:20:52;;;;;;;29.40;14.90;;;;;;;5.95;100.00;97946.30;266844;1270;22616;-81
2023/01/19 09:26:54;;;;;;;30.40;15.40;;;;;;;6.17;100.00;97954.04;266378;1277;22958;-81
2023/01/19 09:33:06;;;;;;;29.40;16.20;;;;;;;6.33;100.00;97958.48;266531;1257;22670;-80
2023/01/19 09:39:09;;;;;;;31.50;15.40;;;;;;;6.22;100.00;97958.48;266708;1273;26556;-82
2023/01/19 09:45:33;;;;;;;29.10;14.30;;;;;;;6.36;100.00;97960.36;266717;1276;22541;-81
2023/01/19 09:51:39;;;;;;;29.10;14.40;;;;;;;6.54;100.00;97949.08;266645;1279;23046;-80
2023/01/19 09:57:43;;;;;;;29.20;14.40;;;;;;;6.47;100.00;97947.85;266469;1275;25359;-80
2023/01/19 10:03:49;;;;;;;28.20;14.10;;;;;;;6.52;100.00;97930.02;266853;1274;24243;-81
2023/01/19 10:10:07;;;;;;;28.60;14.50;;;;;;;6.64;100.00;97941.30;266673;1275;24046;-81
2023/01/19 10:16:33;;;;;;;26.40;13.90;;;;;;;6.82;100.00;97929.62;266644;1273;23679;-84
2023/01/19 10:22:58;;;;;;;;;;;;;;;;;;;;;
2023/01/19 10:30:14;;;;;;;26.00;14.00;;;;;;;6.66;100.00;97911.33;266420;1279;22625;-78
2023/01/19 10:37:46;;;;;;;;;;;;;;;;;;;;;
2023/01/19 10:44:46;;;;;;;;;;;;;;;;;;;;;
2023/01/19 10:59:50;;;;;;;;;;;;;;;;;;;;;
2023/01/19 11:22:25;;;;;;;;;;;;;;;;;;;;;
2023/01/19 11:37:38;;;;;;;;;;;;;;;;;;;;;
2023/01/19 11:52:36;;;;;;;;;;;;;;;;;;;;;
2023/01/19 12:00:03;;;;;;;;;;;;;;;;;;;;;
2023/01/19 15:11:51;;;;;;;36.40;18.50;;;;;;;6.41;100.00;98000.59;270402;1268;23405;-82
2023/01/19 15:17:53;;;;;;;31.50;16.80;;;;;;;6.22;100.00;98007.48;273051;1240;24201;-84
2023/01/19 15:23:57;;;;;;;32.90;17.20;;;;;;;6.39;100.00;98009.27;272852;1256;22932;-82
2023/01/19 15:29:59;;;;;;;28.40;15.60;;;;;;;6.66;100.00;98013.04;272744;1256;22559;-84
2023/01/19 15:36:00;;;;;;;27.40;14.90;;;;;;;6.64;100.00;98018.70;275366;1234;22531;-83
2023/01/19 15:42:02;;;;;;;27.20;14.60;;;;;;;6.30;100.00;98030.30;275110;1244;22673;-82
2023/01/19 15:48:06;;;;;;;27.90;14.20;;;;;;;6.29;100.00;98026.87;275404;1244;26305;-83
2023/01/19 15:54:13;;;;;;;28.50;13.90;;;;;;;6.52;100.00;98028.92;275377;1240;22575;-84
2023/01/19 16:00:15;;;;;;;25.80;14.00;;;;;;;6.35;100.00;98038.25;275430;1244;24193;-81
2023/01/19 16:06:20;;;;;;;24.90;13.00;;;;;;;6.44;100.00;98035.11;275161;1230;26526;-82
2023/01/19 16:12:24;;;;;;;28.40;14.60;;;;;;;6.39;100.00;98042.71;275237;1233;25393;-82
2023/01/19 16:18:25;;;;;;;26.40;13.90;;;;;;;6.38;100.00;98048.11;275282;1244;24419;-83
2023/01/19 16:24:30;;;;;;;27.10;14.10;;;;;;;6.08;100.00;98048.34;275494;1244;22542;-83
2023/01/19 16:30:31;;;;;;;27.20;14.50;;;;;;;6.33;100.00;98055.32;275588;1244;22497;-82
2023/01/19 16:36:35;;;;;;;26.70;15.10;;;;;;;6.30;100.00;98058.08;275462;1244;22715;-82
2023/01/19 16:42:40;;;;;;;27.60;14.80;;;;;;;6.17;100.00;98051.94;275420;1244;23390;-80
2023/01/19 16:48:42;;;;;;;32.60;16.50;;;;;;;6.26;100.00;98059.56;275628;1244;22556;-81
2023/01/19 16:54:43;;;;;;;28.70;15.80;;;;;;;6.39;100.00;98061.90;275895;1244;22581;-84
2023/01/19 17:09:11;;;;;;;30.50;16.10;;;;;;;5.72;100.00;98061.77;274750;1253;22560;-92
2023/01/19 17:15:29;;;;;;;30.70;16.00;;;;;;;6.35;100.00;98066.64;275943;1245;22567;-86
2023/01/19 17:21:31;;;;;;;28.30;15.40;;;;;;;6.16;100.00;98070.48;275120;1245;22915;-83
2023/01/19 17:27:35;;;;;;;26.10;14.00;;;;;;;6.42;100.00;98079.16;275017;1245;24356;-84
2023/01/19 17:33:37;;;;;;;29.80;15.20;;;;;;;6.29;100.00;98084.64;274906;1234;22567;-88
2023/01/19 17:39:39;;;;;;;24.40;13.50;;;;;;;6.08;100.00;98091.29;275233;1243;25378;-84
2023/01/19 17:45:42;;;;;;;23.60;13.80;;;;;;;5.55;100.00;98098.33;275038;1245;22492;-84
2023/01/19 17:52:13;;;;;;;;;;;;;;;;;;;;;
2023/01/19 18:29:19;;;;;;;20.60;12.00;;;;;;;6.00;100.00;98100.33;269038;1265;24382;-84
2023/01/19 18:35:21;;;;;;;28.10;14.60;;;;;;;5.87;100.00;98099.45;271946;1249;22575;-85
2023/01/19 18:41:24;;;;;;;26.60;14.30;;;;;;;5.37;100.00;98110.66;274369;1244;24080;-85
2023/01/19 18:47:26;;;;;;;32.50;17.00;;;;;;;5.71;100.00;98109.88;275834;1244;23424;-82
2023/01/19 18:53:31;;;;;;;40.40;19.60;;;;;;;5.88;100.00;98106.70;276867;1244;22462;-85
2023/01/19 18:59:42;;;;;;;34.40;18.70;;;;;;;6.28;100.00;98103.20;276538;1244;25382;-84
2023/01/19 19:05:45;;;;;;;40.60;19.90;;;;;;;6.19;100.00;98104.98;274752;1244;22498;-82
2023/01/19 19:11:47;;;;;;;36.00;18.70;;;;;;;6.27;100.00;98112.14;274480;1244;24145;-82
2023/01/19 19:17:48;;;;;;;33.60;18.30;;;;;;;6.27;100.00;98139.52;274569;1229;22534;-82
2023/01/19 19:23:51;;;;;;;40.70;19.30;;;;;;;5.70;100.00;98145.27;274803;1241;22546;-80
2023/01/19 19:29:53;;;;;;;33.20;18.30;;;;;;;5.89;100.00;98163.91;274584;1234;25280;-81
2023/01/19 19:36:01;;;;;;;33.60;17.80;;;;;;;5.72;100.00;98167.41;274504;1236;22579;-82
2023/01/19 19:42:02;;;;;;;32.50;17.30;;;;;;;5.50;100.00;98164.23;274938;1228;22494;-81
2023/01/19 19:48:08;;;;;;;35.60;18.40;;;;;;;5.57;100.00;98181.88;275002;1244;26261;-82
2023/01/19 19:54:10;;;;;;;32.60;17.50;;;;;;;5.77;100.00;98191.11;275277;1244;22625;-79
2023/01/19 20:00:12;;;;;;;31.50;16.90;;;;;;;5.94;100.00;98199.32;275001;1244;22501;-82
2023/01/19 20:06:21;;;;;;;32.90;16.80;;;;;;;6.09;100.00;98225.98;275019;1244;24179;-81
2023/01/19 20:12:24;;;;;;;34.00;18.20;;;;;;;6.26;100.00;98230.86;274842;1244;22491;-82
2023/01/19 20:18:28;;;;;;;35.80;19.30;;;;;;;6.19;100.00;98246.83;274759;1240;24121;-81
2023/01/19 20:24:33;;;;;;;42.30;21.30;;;;;;;6.06;100.00;98250.70;274923;1244;22775;-82
2023/01/19 20:30:38;;;;;;;41.10;22.00;;;;;;;6.11;100.00;98262.02;275128;1244;22492;-82
2023/01/19 20:36:41;;;;;;;34.60;18.30;;;;;;;6.12;100.00;98282.35;275203;1244;22547;-90
2023/01/19 20:43:00;;;;;;;34.10;19.10;;;;;;;6.03;100.00;98282.33;276404;1244;22576;-86
2023/01/19 20:49:03;;;;;;;36.50;19.20;;;;;;;6.07;100.00;98278.95;276394;1241;22555;-85
2023/01/19 20:55:17;;;;;;;33.80;18.50;;;;;;;5.91;100.00;98281.00;276061;1244;22683;-90
2023/01/19 21:01:47;;;;;;;34.60;18.50;;;;;;;5.50;100.00;98286.52;278423;1244;22876;-92
2023/01/19 21:07:51;;;;;;;33.70;18.10;;;;;;;5.71;100.00;98289.58;279254;1243;24150;-86
2023/01/19 21:13:55;;;;;;;33.50;18.60;;;;;;;5.37;100.00;98280.34;280310;1244;22446;-84
2023/01/19 21:19:58;;;;;;;34.10;17.80;;;;;;;5.42;100.00;98271.91;280622;1244;24153;-85
2023/01/19 21:26:03;;;;;;;33.40;18.10;;;;;;;5.86;100.00;98287.33;274927;1244;25317;-86
2023/01/19 21:32:05;;;;;;;37.70;20.00;;;;;;;5.97;100.00;98304.10;274637;1244;24193;-85
2023/01/19 21:38:08;;;;;;;40.30;19.80;;;;;;;5.97;100.00;98315.47;275074;1241;22526;-85
2023/01/19 21:44:32;;;;;;;34.50;19.30;;;;;;;5.88;100.00;98332.73;275920;1244;23285;-86
2023/01/19 21:50:35;;;;;;;33.00;18.60;;;;;;;5.85;100.00;98340.71;276036;1244;24226;-84
2023/01/19 21:57:01;;;;;;;36.70;19.30;;;;;;;5.86;100.00;98351.63;275530;1244;22631;-86
2023/01/19 22:03:12;;;;;;;36.40;18.80;;;;;;;5.76;100.00;98351.17;275765;1244;22549;-84
2023/01/19 22:09:22;;;;;;;37.80;20.50;;;;;;;5.31;100.00;98344.90;276217;1241;22887;-85
2023/01/19 22:15:32;;;;;;;38.90;19.80;;;;;;;5.62;100.00;98351.27;275887;1243;22551;-85
2023/01/19 22:22:01;;;;;;;38.90;20.20;;;;;;;5.75;100.00;98356.98;276129;1244;25327;-84
2023/01/19 22:28:10;;;;;;;37.90;19.40;;;;;;;5.77;100.00;98360.67;276051;1244;22552;-85
2023/01/19 22:34:15;;;;;;;33.30;18.80;;;;;;;5.55;100.00;98379.34;276421;1244;22612;-86
2023/01/19 22:40:19;;;;;;;36.90;19.10;;;;;;;5.66;100.00;98381.52;276451;1244;23411;-85
2023/01/19 22:46:37;;;;;;;37.70;19.90;;;;;;;5.77;100.00;98383.35;276459;1244;25399;-86
2023/01/19 22:52:50;;;;;;;36.70;19.10;;;;;;;5.74;100.00;98393.50;276026;1244;22538;-84
2023/01/19 22:59:03;;;;;;;32.50;17.00;;;;;;;5.62;100.00;98393.68;275768;1244;22577;-84
2023/01/19 23:05:16;;;;;;;31.10;17.00;;;;;;;5.69;100.00;98399.73;275836;1244;25278;-84
2023/01/19 23:11:23;;;;;;;35.40;17.80;;;;;;;5.78;100.00;98403.40;275831;1244;22511;-84
2023/01/19 23:17:28;;;;;;;35.10;17.00;;;;;;;5.83;100.00;98421.95;275910;1244;22488;-84
2023/01/19 23:23:40;;;;;;;35.70;16.50;;;;;;;-74.38;39.40;39370.65;273207;1244;1002476;-83
2023/01/19 23:29:45;;;;;;;32.60;16.50;;;;;;;25.99;38.84;98430.25;276456;1244;25691;-84
2023/01/19 23:35:54;;;;;;;30.70;15.30;;;;;;;23.95;40.18;98428.42;276708;1244;22531;-81
2023/01/19 23:42:06;;;;;;;30.10;14.80;;;;;;;22.86;41.16;98429.63;276416;1244;22566;-84
2023/01/19 23:48:34;;;;;;;31.00;15.80;;;;;;;21.43;42.30;98436.16;275707;1244;22533;-85
2023/01/19 23:54:41;;;;;;;29.30;15.20;;;;;;;21.34;42.01;98435.08;275633;1241;22667;-84
